To NAV CANADA Home Page Login to a new session Search on AWWS site Feedback and Comments Disclaimer Vers la page française équivalente Tips FAQ What's new on the site To the Forecasts and Observations / NOTAM section To "File a Flight Plan" website Publications and other links Update of the User's profile FIC Telephone Numbers My Weather Data Folder Route Weather Data Regional Weather Data Local Weather Data To the Forecasts and Observations / NOTAM section
Request Generated 05/27/2015 at 17:30:44 UTC . Weather information available at that time is displayed.

METAR/TAF

EARLTON/EARLTON (TIMISKAMING REGIONAL)/ON    (show WxCam)

METAR CYXR 271700Z AUTO 20019G26KT 9SM SCT038 BKN048 BKN060 BKN095
23/16 A2972 RMK SLP067 DENSITY ALT 2000FT=
METAR CYXR 271600Z AUTO 23015G24KT 9SM FEW029 BKN041 OVC050 21/15
A2974 RMK SLP072 DENSITY ALT 1900FT=
METAR CYXR 271500Z AUTO 19019G30KT 9SM SCT024 BKN030 BKN039 BKN046
21/16 A2973 RMK SLP069 DENSITY ALT 1800FT=

TAF CYXR 271138Z 2712/2724 19012KT P6SM BKN040 TEMPO 2712/2717 BKN020
BECMG 2715/2717 20015G25KT
FM272100 20015G25KT P6SM BKN030 PROB30 2722/2724 2SM TSRA BR
OVC020CB
RMK FCST BASED ON AUTO OBS. NXT FCST BY 271800Z=
Your time UTC time
Weather data provided by Environment Canada and NAV CANADA